Time;durP1;ratioP1;P1;durP2;ratioP2;P2;SDS_P1;SDS_P2;PMS_P1;PMS_P2;Temp;Humidity;BMP_temperature;BMP_pressure;BME280_temperature;BME280_humidity;BME280_pressure;Samples;Min_cycle;Max_cycle;Signal;HPM_P1;HPM_P2
2022/12/13 00:03:38;;;;;;;6.88;4.10;;;;;;;;;;12836669;19;20434;-62
2022/12/13 00:07:55;;;;;;;9.00;4.45;;;;;;;;;;12834979;19;20311;-63
2022/12/13 00:12:12;;;;;;;7.68;4.30;;;;;;;;;;12834796;19;20430;-62
2022/12/13 00:16:29;;;;;;;5.65;3.35;;;;;;;;;;12834262;19;20013;-63
2022/12/13 00:20:47;;;;;;;6.13;3.67;;;;;;;;;;12835040;19;20430;-63
2022/12/13 00:25:04;;;;;;;3.45;2.72;;;;;;;;;;12833379;19;20015;-62
2022/12/13 00:29:21;;;;;;;5.63;3.47;;;;;;;;;;12835580;19;20632;-62
2022/12/13 00:33:38;;;;;;;5.53;3.53;;;;;;;;;;12834394;19;20421;-64
2022/12/13 00:37:55;;;;;;;6.18;3.40;;;;;;;;;;12834205;19;20466;-63
2022/12/13 00:42:12;;;;;;;6.00;3.97;;;;;;;;;;12833423;19;20426;-64
2022/12/13 00:46:31;;;;;;;5.28;2.78;;;;;;;;;;12833618;19;20454;-62
2022/12/13 00:50:48;;;;;;;4.20;3.20;;;;;;;;;;12840766;19;20532;-63
2022/12/13 00:55:06;;;;;;;6.13;4.10;;;;;;;;;;12844591;19;20451;-62
2022/12/13 00:59:22;;;;;;;6.05;3.70;;;;;;;;;;12846835;19;20438;-63
2022/12/13 01:03:41;;;;;;;4.88;3.13;;;;;;;;;;12846144;19;20342;-63
2022/12/13 01:07:57;;;;;;;6.05;3.85;;;;;;;;;;12844312;19;20006;-63
2022/12/13 01:12:15;;;;;;;8.00;5.10;;;;;;;;;;12843389;19;20438;-62
2022/12/13 01:16:32;;;;;;;7.07;4.32;;;;;;;;;;12843530;19;20031;-63
2022/12/13 01:21:00;;;;;;;6.88;4.68;;;;;;;;;;12843525;19;20677;-64
2022/12/13 01:25:17;;;;;;;10.48;4.70;;;;;;;;;;12844000;19;20007;-62
2022/12/13 01:29:34;;;;;;;5.93;3.67;;;;;;;;;;12843849;19;20311;-64
2022/12/13 01:33:51;;;;;;;10.05;4.35;;;;;;;;;;12843217;19;20087;-63
2022/12/13 01:38:08;;;;;;;5.85;3.55;;;;;;;;;;12841757;19;20033;-65
2022/12/13 01:42:31;;;;;;;6.00;3.80;;;;;;;;;;12843474;19;20423;-64
2022/12/13 01:46:49;;;;;;;8.23;3.92;;;;;;;;;;12842677;19;20010;-63
2022/12/13 01:51:10;;;;;;;7.15;3.78;;;;;;;;;;12838884;19;20552;-62
2022/12/13 01:55:33;;;;;;;5.47;3.08;;;;;;;;;;12843292;19;20006;-65
2022/12/13 01:59:57;;;;;;;6.10;3.33;;;;;;;;;;12838419;19;20577;-62
2022/12/13 02:04:19;;;;;;;5.88;3.92;;;;;;;;;;12841140;19;20446;-62
2022/12/13 02:08:39;;;;;;;4.38;3.25;;;;;;;;;;12840690;19;20332;-63
2022/12/13 02:12:57;;;;;;;8.73;3.03;;;;;;;;;;12839339;19;20688;-63
2022/12/13 02:17:51;;;;;;;4.65;3.22;;;;;;;;;;12839472;19;20355;-62
2022/12/13 02:23:19;;;;;;;4.13;2.92;;;;;;;;;;12839770;19;20438;-62
2022/12/13 02:28:04;;;;;;;;;;;;;;;;;;12836335;19;20446;-63
2022/12/13 02:33:03;;;;;;;4.95;2.97;;;;;;;;;;12839824;19;20220;-63
2022/12/13 02:37:31;;;;;;;4.35;3.00;;;;;;;;;;12837152;19;20364;-63
2022/12/13 02:42:20;;;;;;;4.87;3.00;;;;;;;;;;12837649;19;20018;-65
2022/12/13 02:46:48;;;;;;;5.03;3.22;;;;;;;;;;12836999;19;20323;-62
2022/12/13 02:51:08;;;;;;;8.55;2.90;;;;;;;;;;12836647;19;20577;-62
2022/12/13 02:55:25;;;;;;;4.47;2.75;;;;;;;;;;12838553;19;20296;-62
2022/12/13 02:59:44;;;;;;;5.70;3.03;;;;;;;;;;12838730;19;20532;-63
2022/12/13 03:04:30;;;;;;;5.85;3.13;;;;;;;;;;12838311;19;20011;-62
2022/12/13 03:09:29;;;;;;;4.32;2.83;;;;;;;;;;12837545;19;20304;-63
2022/12/13 03:13:54;;;;;;;4.93;3.03;;;;;;;;;;12835902;19;20462;-63
2022/12/13 03:18:18;;;;;;;4.68;3.03;;;;;;;;;;12834635;19;20352;-63
2022/12/13 03:22:35;;;;;;;6.53;3.53;;;;;;;;;;12836254;19;20430;-62
2022/12/13 03:26:53;;;;;;;5.50;2.75;;;;;;;;;;12837348;19;20430;-62
2022/12/13 03:31:10;;;;;;;5.70;2.83;;;;;;;;;;12835675;19;20303;-63
2022/12/13 03:35:28;;;;;;;3.58;2.50;;;;;;;;;;12837941;19;20006;-63
2022/12/13 03:40:00;;;;;;;4.35;2.67;;;;;;;;;;12841026;19;20422;-63
2022/12/13 03:44:17;;;;;;;4.53;3.00;;;;;;;;;;12836854;19;20374;-63
2022/12/13 03:48:35;;;;;;;5.35;3.15;;;;;;;;;;12836246;19;20437;-63
2022/12/13 03:52:58;;;;;;;6.23;2.87;;;;;;;;;;12836795;19;20438;-65
2022/12/13 03:57:15;;;;;;;6.28;3.13;;;;;;;;;;12835866;19;20014;-64
2022/12/13 04:01:32;;;;;;;3.83;2.50;;;;;;;;;;12836056;19;20296;-63
2022/12/13 04:05:50;;;;;;;4.90;2.70;;;;;;;;;;12836281;19;20375;-63
2022/12/13 04:10:07;;;;;;;6.22;2.90;;;;;;;;;;12833828;19;20437;-63
2022/12/13 04:14:42;;;;;;;4.65;2.78;;;;;;;;;;12834386;19;20383;-64
2022/12/13 04:18:59;;;;;;;5.82;2.95;;;;;;;;;;12834467;19;20462;-64
2022/12/13 04:23:16;;;;;;;5.47;2.60;;;;;;;;;;12835243;19;20011;-64
2022/12/13 04:27:33;;;;;;;4.90;3.30;;;;;;;;;;12847237;19;20588;-64
2022/12/13 04:31:50;;;;;;;7.47;3.00;;;;;;;;;;12847150;19;20438;-63
2022/12/13 04:36:07;;;;;;;4.45;3.10;;;;;;;;;;12845661;19;20474;-62
2022/12/13 04:40:24;;;;;;;4.97;2.67;;;;;;;;;;12847151;19;20043;-66
2022/12/13 04:44:41;;;;;;;6.80;3.42;;;;;;;;;;12845949;19;20433;-64
2022/12/13 04:49:02;;;;;;;5.07;3.20;;;;;;;;;;12846018;19;20291;-64
2022/12/13 04:53:19;;;;;;;6.53;3.97;;;;;;;;;;12846264;19;20364;-63
2022/12/13 04:57:36;;;;;;;6.35;3.90;;;;;;;;;;12846705;19;20458;-64
2022/12/13 05:01:53;;;;;;;5.00;3.20;;;;;;;;;;12845012;19;20038;-63
2022/12/13 05:06:13;;;;;;;6.72;4.60;;;;;;;;;;12844671;19;20490;-63
2022/12/13 05:10:42;;;;;;;5.82;3.47;;;;;;;;;;12845006;19;20045;-63
2022/12/13 05:15:00;;;;;;;6.22;3.42;;;;;;;;;;12845215;19;20014;-64
2022/12/13 05:19:17;;;;;;;7.47;4.03;;;;;;;;;;12846043;19;20310;-64
2022/12/13 05:23:35;;;;;;;7.22;4.60;;;;;;;;;;12844189;19;20411;-65
2022/12/13 05:27:52;;;;;;;10.47;4.73;;;;;;;;;;12842843;19;20368;-62
2022/12/13 05:32:12;;;;;;;7.15;4.18;;;;;;;;;;12842368;19;20446;-63
2022/12/13 05:36:29;;;;;;;11.00;4.43;;;;;;;;;;12842240;19;20341;-63
2022/12/13 05:40:46;;;;;;;8.18;4.97;;;;;;;;;;12843278;19;20553;-64
2022/12/13 05:45:06;;;;;;;10.60;4.68;;;;;;;;;;12842282;19;20303;-63
2022/12/13 05:49:23;;;;;;;7.07;4.28;;;;;;;;;;12843289;19;20074;-63
2022/12/13 05:53:41;;;;;;;6.70;4.50;;;;;;;;;;12842400;19;20007;-64
2022/12/13 05:57:59;;;;;;;7.00;4.47;;;;;;;;;;12844457;19;20351;-64
2022/12/13 06:02:18;;;;;;;8.15;5.22;;;;;;;;;;12842025;19;20081;-65
2022/12/13 06:06:37;;;;;;;7.63;4.95;;;;;;;;;;12839226;19;20313;-63
2022/12/13 06:10:56;;;;;;;7.80;4.50;;;;;;;;;;12842464;19;20327;-64
2022/12/13 06:15:27;;;;;;;7.22;4.00;;;;;;;;;;12841330;19;20422;-63
2022/12/13 06:19:51;;;;;;;6.03;3.92;;;;;;;;;;12840553;19;20437;-63
2022/12/13 06:24:08;;;;;;;7.40;4.15;;;;;;;;;;12839811;19;20438;-64
2022/12/13 06:28:25;;;;;;;7.72;4.50;;;;;;;;;;12840895;19;20468;-63
2022/12/13 06:32:42;;;;;;;9.85;4.72;;;;;;;;;;12840981;19;20539;-64
2022/12/13 06:37:00;;;;;;;9.18;5.18;;;;;;;;;;12840391;19;20469;-63
2022/12/13 06:41:17;;;;;;;12.48;7.10;;;;;;;;;;12840287;19;20449;-63
2022/12/13 06:45:39;;;;;;;12.02;6.38;;;;;;;;;;12838702;19;20014;-64
2022/12/13 06:49:56;;;;;;;9.57;6.20;;;;;;;;;;12838547;19;20438;-64
2022/12/13 06:54:21;;;;;;;15.18;7.43;;;;;;;;;;12834378;19;20007;-63
2022/12/13 06:58:40;;;;;;;18.58;8.70;;;;;;;;;;12839032;19;20307;-64
2022/12/13 07:02:58;;;;;;;13.90;7.43;;;;;;;;;;12840180;19;20336;-64
2022/12/13 07:07:15;;;;;;;17.50;8.05;;;;;;;;;;12838143;19;20360;-66
2022/12/13 07:11:32;;;;;;;22.38;9.70;;;;;;;;;;12835868;19;20431;-63
2022/12/13 07:15:49;;;;;;;12.27;6.72;;;;;;;;;;12838010;19;20430;-64
2022/12/13 07:20:07;;;;;;;17.15;9.48;;;;;;;;;;12836200;19;20071;-63
2022/12/13 07:24:24;;;;;;;17.75;8.82;;;;;;;;;;12837215;19;20418;-64
2022/12/13 07:28:42;;;;;;;16.27;10.02;;;;;;;;;;12837580;19;20493;-65
2022/12/13 07:45:45;;;;;;;37.22;15.57;;;;;;;;;;12878193;19;20479;-66
2022/12/13 07:50:02;;;;;;;68.07;25.33;;;;;;;;;;12871402;19;20510;-64
2022/12/13 07:54:19;;;;;;;78.82;37.65;;;;;;;;;;12869045;19;20775;-63
2022/12/13 07:58:37;;;;;;;47.72;21.02;;;;;;;;;;12872137;19;20434;-64
2022/12/13 08:02:54;;;;;;;24.05;13.57;;;;;;;;;;12873294;19;20497;-67
2022/12/13 08:07:11;;;;;;;19.38;10.82;;;;;;;;;;12871375;19;20045;-64
2022/12/13 08:11:28;;;;;;;21.80;9.63;;;;;;;;;;12871703;19;20457;-65
2022/12/13 08:15:45;;;;;;;15.65;8.02;;;;;;;;;;12871070;19;20337;-66
2022/12/13 08:20:04;;;;;;;17.77;9.40;;;;;;;;;;12870238;19;20291;-65
2022/12/13 08:24:23;;;;;;;27.27;12.05;;;;;;;;;;12869772;19;20437;-64
2022/12/13 08:28:40;;;;;;;10.32;5.68;;;;;;;;;;12874481;19;20010;-64
2022/12/13 08:32:56;;;;;;;10.38;4.75;;;;;;;;;;12866612;19;20385;-65
2022/12/13 08:37:14;;;;;;;9.38;5.65;;;;;;;;;;12869663;19;20441;-64
2022/12/13 08:41:31;;;;;;;11.80;5.47;;;;;;;;;;12867922;19;20327;-65
2022/12/13 08:45:54;;;;;;;15.30;6.97;;;;;;;;;;12823388;19;20788;-67
2022/12/13 08:50:17;;;;;;;9.52;4.97;;;;;;;;;;12819387;19;20491;-64
2022/12/13 08:54:34;;;;;;;14.55;5.65;;;;;;;;;;12817157;19;20037;-64
2022/12/13 08:58:50;;;;;;;10.68;5.50;;;;;;;;;;12816941;19;20334;-64
2022/12/13 09:03:08;;;;;;;9.20;5.10;;;;;;;;;;12819201;19;20011;-64
2022/12/13 09:07:26;;;;;;;11.82;6.15;;;;;;;;;;12818809;19;20325;-64
2022/12/13 09:11:43;;;;;;;6.45;4.28;;;;;;;;;;12819000;19;20014;-64
2022/12/13 09:16:06;;;;;;;9.07;5.82;;;;;;;;;;12818568;19;20665;-64
2022/12/13 09:20:41;;;;;;;9.00;4.38;;;;;;;;;;12817475;19;20637;-64
2022/12/13 09:24:58;;;;;;;10.75;4.75;;;;;;;;;;12819079;19;20074;-65
2022/12/13 09:29:18;;;;;;;9.82;4.88;;;;;;;;;;12818396;19;20326;-65
2022/12/13 09:33:36;;;;;;;11.40;6.10;;;;;;;;;;12814591;19;20326;-64
2022/12/13 09:37:57;;;;;;;10.25;4.38;;;;;;;;;;12817625;19;20011;-65
2022/12/13 09:42:27;;;;;;;6.55;4.10;;;;;;;;;;12815207;19;20875;-63
2022/12/13 09:46:49;;;;;;;10.85;4.35;;;;;;;;;;12816493;19;20437;-64
2022/12/13 09:51:09;;;;;;;6.22;3.72;;;;;;;;;;12817859;19;20431;-64
2022/12/13 09:55:49;;;;;;;7.88;3.80;;;;;;;;;;12811128;19;20011;-64
2022/12/13 10:00:11;;;;;;;6.43;2.88;;;;;;;;;;12815789;19;20359;-63
2022/12/13 10:04:28;;;;;;;6.38;3.70;;;;;;;;;;12815260;19;20094;-63
2022/12/13 10:08:56;;;;;;;8.45;3.95;;;;;;;;;;12815456;19;20061;-64
2022/12/13 10:13:14;;;;;;;23.75;9.88;;;;;;;;;;12818964;19;20430;-67
2022/12/13 10:17:36;;;;;;;9.02;3.78;;;;;;;;;;12815054;19;20465;-64
2022/12/13 10:21:54;;;;;;;27.25;11.90;;;;;;;;;;12816555;19;20006;-65
2022/12/13 10:26:18;;;;;;;28.85;11.75;;;;;;;;;;12814928;19;20330;-63
2022/12/13 10:30:42;;;;;;;13.10;6.60;;;;;;;;;;12813147;19;20448;-65
2022/12/13 10:35:29;;;;;;;15.65;6.22;;;;;;;;;;12810487;19;20090;-64
2022/12/13 10:39:46;;;;;;;46.70;18.38;;;;;;;;;;12811880;19;20007;-64
2022/12/13 10:44:24;;;;;;;29.25;11.95;;;;;;;;;;12811161;19;20470;-63
2022/12/13 10:48:50;;;;;;;16.27;6.32;;;;;;;;;;12812183;19;20402;-63
2022/12/13 10:53:16;;;;;;;35.45;14.80;;;;;;;;;;12810224;19;20429;-65
2022/12/13 10:57:38;;;;;;;8.68;4.88;;;;;;;;;;12812204;19;20006;-65
2022/12/13 11:01:55;;;;;;;14.80;6.07;;;;;;;;;;12812417;19;20418;-64
2022/12/13 11:06:16;;;;;;;13.73;6.07;;;;;;;;;;12810516;19;20022;-63
2022/12/13 11:10:33;;;;;;;12.70;5.78;;;;;;;;;;12811816;19;20496;-64
2022/12/13 11:15:00;;;;;;;11.35;5.65;;;;;;;;;;12808555;19;20441;-64
2022/12/13 11:19:22;;;;;;;11.23;5.95;;;;;;;;;;12808723;19;20436;-64
2022/12/13 11:23:44;;;;;;;11.10;5.88;;;;;;;;;;12812841;19;20046;-64
2022/12/13 11:28:27;;;;;;;9.63;6.15;;;;;;;;;;12808585;19;20361;-65
2022/12/13 11:33:19;;;;;;;13.57;6.13;;;;;;;;;;12808154;19;20469;-63
2022/12/13 11:37:57;;;;;;;10.15;5.45;;;;;;;;;;12809915;19;20019;-64
2022/12/13 11:42:40;;;;;;;11.83;5.90;;;;;;;;;;12806456;19;20054;-64
2022/12/13 11:46:59;;;;;;;12.10;6.72;;;;;;;;;;12807653;19;20305;-63
2022/12/13 11:51:25;;;;;;;9.25;5.07;;;;;;;;;;12808936;19;20461;-64
2022/12/13 11:55:58;;;;;;;12.77;6.35;;;;;;;;;;12805125;19;20370;-64
2022/12/13 12:00:47;;;;;;;16.63;6.45;;;;;;;;;;12810152;19;20445;-65
2022/12/13 12:05:15;;;;;;;13.55;6.72;;;;;;;;;;12806184;19;20330;-64
2022/12/13 12:09:35;;;;;;;14.52;6.97;;;;;;;;;;12807256;19;20324;-65
2022/12/13 12:13:59;;;;;;;25.98;9.93;;;;;;;;;;12806764;19;20452;-64
2022/12/13 12:18:16;;;;;;;27.73;11.35;;;;;;;;;;12808731;19;20014;-64
2022/12/13 12:22:51;;;;;;;20.42;8.18;;;;;;;;;;12820671;19;20488;-64
2022/12/13 12:27:46;;;;;;;18.75;9.55;;;;;;;;;;12821291;19;20324;-64
2022/12/13 12:32:12;;;;;;;15.07;6.90;;;;;;;;;;12820239;19;20432;-67
2022/12/13 12:36:45;;;;;;;12.90;7.03;;;;;;;;;;12819191;19;20463;-66
2022/12/13 12:41:40;;;;;;;16.67;9.65;;;;;;;;;;12818742;19;20322;-64
2022/12/13 12:46:21;;;;;;;18.58;8.30;;;;;;;;;;12819765;19;20355;-63
2022/12/13 12:50:59;;;;;;;16.40;8.95;;;;;;;;;;12819135;19;20469;-64
2022/12/13 12:55:48;;;;;;;14.60;6.97;;;;;;;;;;12814168;19;20438;-64
2022/12/13 13:00:14;;;;;;;15.00;7.15;;;;;;;;;;12818725;19;20508;-67
2022/12/13 13:04:43;;;;;;;28.92;10.15;;;;;;;;;;12820239;19;20490;-64
2022/12/13 13:09:03;;;;;;;;;;;;;;;;;;12819180;19;20446;-64
2022/12/13 13:13:46;;;;;;;13.57;7.30;;;;;;;;;;12815870;19;19971;-64
2022/12/13 13:18:03;;;;;;;13.48;6.53;;;;;;;;;;12817578;19;20014;-64
2022/12/13 13:22:35;;;;;;;11.70;7.07;;;;;;;;;;12817653;19;20433;-64
2022/12/13 13:27:07;;;;;;;16.15;7.38;;;;;;;;;;12817161;19;20046;-64
2022/12/13 13:31:24;;;;;;;13.02;6.88;;;;;;;;;;12817882;19;20373;-64
2022/12/13 13:35:41;;;;;;;18.48;8.07;;;;;;;;;;12813451;19;20359;-64
2022/12/13 13:40:01;;;;;;;15.10;6.65;;;;;;;;;;12819858;19;20042;-65
2022/12/13 13:44:53;;;;;;;12.65;6.40;;;;;;;;;;12813688;19;20389;-64
2022/12/13 13:49:11;;;;;;;15.93;6.72;;;;;;;;;;12817928;19;20436;-66
2022/12/13 13:53:57;;;;;;;13.52;7.10;;;;;;;;;;12812935;19;20434;-64
2022/12/13 13:58:42;;;;;;;13.98;6.95;;;;;;;;;;12815586;19;20279;-64
2022/12/13 14:03:36;;;;;;;12.93;6.60;;;;;;;;;;12817914;19;20425;-65
2022/12/13 14:09:00;;;;;;;18.75;8.85;;;;;;;;;;12815617;19;20034;-63
2022/12/13 14:13:49;;;;;;;16.77;8.20;;;;;;;;;;12807478;19;20581;-65
2022/12/13 14:18:37;;;;;;;21.40;10.85;;;;;;;;;;12813099;19;20377;-65
2022/12/13 14:23:13;;;;;;;27.50;11.32;;;;;;;;;;12817279;19;20493;-63
2022/12/13 14:27:47;;;;;;;19.00;9.80;;;;;;;;;;12816613;19;20441;-64
2022/12/13 14:32:26;;;;;;;16.73;8.25;;;;;;;;;;12820707;19;20406;-67
2022/12/13 14:36:45;;;;;;;21.92;9.88;;;;;;;;;;12812292;19;20011;-64
2022/12/13 14:41:07;;;;;;;41.75;15.48;;;;;;;;;;12812504;19;20513;-65
2022/12/13 14:45:35;;;;;;;18.35;8.90;;;;;;;;;;12812514;19;20774;-64
2022/12/13 14:49:54;;;;;;;23.55;9.82;;;;;;;;;;12812604;19;20452;-65
2022/12/13 14:54:19;;;;;;;30.92;11.18;;;;;;;;;;12685605;19;20457;-65
2022/12/13 14:58:56;;;;;;;34.17;11.10;;;;;;;;;;12810337;19;20329;-64
2022/12/13 15:03:26;;;;;;;27.52;12.50;;;;;;;;;;12811073;19;20434;-64
2022/12/13 15:07:44;;;;;;;30.80;14.35;;;;;;;;;;12815547;19;20433;-63
2022/12/13 15:12:06;;;;;;;43.95;18.13;;;;;;;;;;12812406;19;20080;-64
2022/12/13 15:16:50;;;;;;;52.60;23.33;;;;;;;;;;12812007;19;20438;-64
2022/12/13 15:21:23;;;;;;;49.15;21.58;;;;;;;;;;12811860;19;20329;-64
2022/12/13 15:25:41;;;;;;;28.73;14.45;;;;;;;;;;12811549;19;20486;-64
2022/12/13 15:29:58;;;;;;;24.10;12.83;;;;;;;;;;12811395;19;20128;-65
2022/12/13 15:34:36;;;;;;;26.60;14.70;;;;;;;;;;12809561;19;20312;-66
2022/12/13 15:38:53;;;;;;;64.50;23.60;;;;;;;;;;12811008;19;20015;-63
2022/12/13 15:43:17;;;;;;;70.22;28.48;;;;;;;;;;12811316;19;20014;-64
2022/12/13 15:47:34;;;;;;;117.15;38.38;;;;;;;;;;12809145;19;20014;-65
2022/12/13 15:52:27;;;;;;;85.78;33.20;;;;;;;;;;12811037;19;20522;-64
2022/12/13 15:57:14;;;;;;;62.50;24.95;;;;;;;;;;12822231;19;20498;-63
2022/12/13 16:01:34;;;;;;;53.08;21.70;;;;;;;;;;12823732;19;20007;-66
2022/12/13 16:05:55;;;;;;;61.42;23.98;;;;;;;;;;12824446;19;20489;-64
2022/12/13 16:10:18;;;;;;;46.20;21.98;;;;;;;;;;12822403;19;20006;-65
2022/12/13 16:14:41;;;;;;;47.30;18.40;;;;;;;;;;12820569;19;20457;-66
2022/12/13 16:19:14;;;;;;;66.10;25.08;;;;;;;;;;12822428;19;20354;-64
2022/12/13 16:23:33;;;;;;;64.25;26.95;;;;;;;;;;12821486;19;20011;-65
2022/12/13 16:27:50;;;;;;;39.38;19.40;;;;;;;;;;12821811;19;20480;-63
2022/12/13 16:32:09;;;;;;;37.40;17.23;;;;;;;;;;12822092;19;20442;-64
2022/12/13 16:36:26;;;;;;;116.47;42.22;;;;;;;;;;12816788;19;20043;-65
2022/12/13 16:40:52;;;;;;;71.38;29.38;;;;;;;;;;12820622;19;20477;-63
2022/12/13 16:45:13;;;;;;;78.90;32.35;;;;;;;;;;12817137;19;20531;-65
2022/12/13 16:49:49;;;;;;;67.47;29.42;;;;;;;;;;12822121;19;20375;-66
2022/12/13 16:54:06;;;;;;;54.75;25.70;;;;;;;;;;12818884;19;20010;-65
2022/12/13 16:58:24;;;;;;;47.00;24.80;;;;;;;;;;12819441;19;20430;-63
2022/12/13 17:02:41;;;;;;;39.15;18.88;;;;;;;;;;12821094;19;20450;-64
2022/12/13 17:06:58;;;;;;;40.45;18.65;;;;;;;;;;12818394;19;20528;-64
2022/12/13 17:11:15;;;;;;;46.80;22.98;;;;;;;;;;12818564;19;20378;-63
2022/12/13 17:15:35;;;;;;;63.95;23.65;;;;;;;;;;12815752;19;20338;-64
2022/12/13 17:19:52;;;;;;;43.53;17.48;;;;;;;;;;12818573;19;20050;-65
2022/12/13 17:24:11;;;;;;;39.08;16.25;;;;;;;;;;12820285;19;20437;-65
2022/12/13 17:28:28;;;;;;;38.70;17.58;;;;;;;;;;12817203;19;20007;-65
2022/12/13 17:32:45;;;;;;;80.45;23.60;;;;;;;;;;12818785;19;20352;-66
2022/12/13 17:37:02;;;;;;;34.13;16.20;;;;;;;;;;12816833;19;20331;-63
2022/12/13 17:41:26;;;;;;;46.15;21.08;;;;;;;;;;12817661;19;20046;-64
2022/12/13 17:45:43;;;;;;;53.42;21.95;;;;;;;;;;12814385;19;20015;-64
2022/12/13 17:50:00;;;;;;;48.03;20.38;;;;;;;;;;12818836;19;20465;-68
2022/12/13 17:54:17;;;;;;;60.40;22.77;;;;;;;;;;12816961;19;20025;-65
2022/12/13 17:58:34;;;;;;;77.60;27.65;;;;;;;;;;12816958;19;20058;-64
2022/12/13 18:02:51;;;;;;;54.90;19.25;;;;;;;;;;12816463;19;20422;-64
2022/12/13 18:07:11;;;;;;;66.25;21.95;;;;;;;;;;12662397;19;20313;-65
2022/12/13 18:11:29;;;;;;;78.88;28.88;;;;;;;;;;12816042;19;20325;-63
2022/12/13 18:15:50;;;;;;;45.55;20.95;;;;;;;;;;12642432;19;20791;-67
2022/12/13 18:20:08;;;;;;;48.90;21.93;;;;;;;;;;12679331;19;20314;-65
2022/12/13 18:24:26;;;;;;;71.60;28.60;;;;;;;;;;12841342;19;20718;-64
2022/12/13 18:28:44;;;;;;;69.40;25.47;;;;;;;;;;12840801;19;20361;-63
2022/12/13 18:33:02;;;;;;;44.38;19.30;;;;;;;;;;12839453;19;20018;-64
2022/12/13 18:37:19;;;;;;;50.13;19.13;;;;;;;;;;12839253;19;20301;-65
2022/12/13 18:41:36;;;;;;;53.58;21.13;;;;;;;;;;12839484;19;20482;-65
2022/12/13 18:45:53;;;;;;;67.60;27.42;;;;;;;;;;12838622;19;20010;-63
2022/12/13 18:50:11;;;;;;;64.45;29.10;;;;;;;;;;12783015;19;20432;-65
2022/12/13 18:54:28;;;;;;;79.38;38.47;;;;;;;;;;12838143;19;20317;-64
2022/12/13 18:58:49;;;;;;;73.55;26.20;;;;;;;;;;12838373;19;20437;-64
2022/12/13 19:03:06;;;;;;;36.72;15.48;;;;;;;;;;12836364;19;20020;-64
2022/12/13 19:07:24;;;;;;;28.98;12.77;;;;;;;;;;12837434;19;20725;-65
2022/12/13 19:11:41;;;;;;;27.45;12.70;;;;;;;;;;12837825;19;20385;-63
2022/12/13 19:16:06;;;;;;;37.72;17.95;;;;;;;;;;12837160;19;20640;-65
2022/12/13 19:20:24;;;;;;;43.45;21.35;;;;;;;;;;12838255;19;20453;-64
2022/12/13 19:24:42;;;;;;;63.47;25.30;;;;;;;;;;12836973;19;20028;-64
2022/12/13 19:29:00;;;;;;;48.45;21.25;;;;;;;;;;12836554;19;20481;-65
2022/12/13 19:33:18;;;;;;;40.13;17.48;;;;;;;;;;12835300;19;20345;-65
2022/12/13 19:37:36;;;;;;;40.03;17.42;;;;;;;;;;12802902;19;20366;-64
2022/12/13 19:41:53;;;;;;;41.80;21.50;;;;;;;;;;12835859;19;20305;-64
2022/12/13 19:46:11;;;;;;;58.55;26.48;;;;;;;;;;12833595;19;20478;-63
2022/12/13 19:50:29;;;;;;;52.08;21.23;;;;;;;;;;12835901;19;20429;-64
2022/12/13 19:54:46;;;;;;;47.40;20.23;;;;;;;;;;12834686;19;20491;-63
2022/12/13 19:59:04;;;;;;;38.22;19.02;;;;;;;;;;12834453;19;20316;-64
2022/12/13 20:03:21;;;;;;;46.28;21.40;;;;;;;;;;12835486;19;20429;-63
2022/12/13 20:07:39;;;;;;;45.63;20.70;;;;;;;;;;12834897;19;20450;-64
2022/12/13 20:11:56;;;;;;;44.80;19.52;;;;;;;;;;12835024;19;20319;-64
2022/12/13 20:16:17;;;;;;;58.65;22.10;;;;;;;;;;12833181;19;20442;-64
2022/12/13 20:20:34;;;;;;;51.75;22.08;;;;;;;;;;12554725;19;5001542;-65
2022/12/13 20:25:11;;;;;;;44.53;18.88;;;;;;;;;;12831695;19;20388;-65
2022/12/13 20:29:28;;;;;;;50.83;20.60;;;;;;;;;;12833526;19;20010;-65
2022/12/13 20:33:46;;;;;;;44.47;18.88;;;;;;;;;;12832730;19;20422;-63
2022/12/13 20:38:03;;;;;;;40.38;17.65;;;;;;;;;;12832258;19;20487;-65
2022/12/13 20:42:20;;;;;;;42.50;18.05;;;;;;;;;;12841068;19;20508;-64
2022/12/13 20:46:38;;;;;;;38.42;16.85;;;;;;;;;;12789734;19;20011;-64
2022/12/13 20:51:03;;;;;;;38.05;16.98;;;;;;;;;;12844545;19;20011;-63
2022/12/13 20:55:21;;;;;;;46.35;20.10;;;;;;;;;;12842370;19;20431;-64
2022/12/13 20:59:38;;;;;;;39.88;18.17;;;;;;;;;;12844128;19;20426;-64
2022/12/13 21:03:59;;;;;;;40.17;16.05;;;;;;;;;;12844335;19;20014;-64
2022/12/13 21:12:51;;;;;;;37.22;15.40;;;;;;;;;;12843836;19;20323;-64
2022/12/13 21:17:10;;;;;;;32.13;14.73;;;;;;;;;;12839542;19;20014;-63
2022/12/13 21:21:29;;;;;;;33.40;14.52;;;;;;;;;;12842984;19;20365;-64
2022/12/13 21:25:46;;;;;;;;;;;;;;;;;;12791283;19;20553;-63
2022/12/13 21:30:04;;;;;;;35.92;15.98;;;;;;;;;;12733413;19;20217;-63
2022/12/13 21:34:21;;;;;;;39.05;16.55;;;;;;;;;;12843864;19;20308;-63
2022/12/13 21:38:39;;;;;;;50.63;19.17;;;;;;;;;;12842890;19;20457;-63
2022/12/13 21:42:56;;;;;;;36.92;17.13;;;;;;;;;;12843687;19;20307;-64
2022/12/13 21:47:13;;;;;;;38.65;16.55;;;;;;;;;;12841321;19;20038;-64
2022/12/13 21:51:30;;;;;;;36.75;16.20;;;;;;;;;;12842241;19;20327;-65
2022/12/13 21:55:47;;;;;;;35.03;16.58;;;;;;;;;;12840617;19;20496;-63
2022/12/13 22:00:05;;;;;;;39.85;17.35;;;;;;;;;;12840239;19;20485;-63
2022/12/13 22:04:22;;;;;;;38.97;17.13;;;;;;;;;;12840516;19;20322;-63
2022/12/13 22:08:39;;;;;;;47.35;20.80;;;;;;;;;;12841919;19;20477;-64
2022/12/13 22:12:56;;;;;;;52.45;20.60;;;;;;;;;;12840268;19;20014;-64
2022/12/13 22:17:13;;;;;;;45.25;21.05;;;;;;;;;;12839213;19;20359;-63
2022/12/13 22:21:31;;;;;;;59.40;22.35;;;;;;;;;;12840821;19;20501;-63
2022/12/13 22:25:48;;;;;;;59.85;25.52;;;;;;;;;;12839956;19;20021;-63
2022/12/13 22:30:06;;;;;;;66.65;26.08;;;;;;;;;;12838916;19;20433;-65
2022/12/13 22:34:23;;;;;;;76.15;29.60;;;;;;;;;;12839020;19;20314;-63
2022/12/13 22:38:40;;;;;;;73.57;28.90;;;;;;;;;;12839440;19;20025;-64
2022/12/13 22:42:57;;;;;;;64.60;28.17;;;;;;;;;;12839219;19;20327;-63
2022/12/13 22:47:14;;;;;;;64.68;28.08;;;;;;;;;;12838011;19;20375;-64
2022/12/13 22:51:31;;;;;;;60.58;27.67;;;;;;;;;;12839906;19;20337;-65
2022/12/13 22:55:48;;;;;;;70.65;30.70;;;;;;;;;;12837825;19;20311;-63
2022/12/13 23:00:08;;;;;;;82.65;33.83;;;;;;;;;;12838507;19;20018;-65
2022/12/13 23:04:26;;;;;;;98.70;40.92;;;;;;;;;;12836675;19;20046;-64
2022/12/13 23:08:47;;;;;;;107.82;42.13;;;;;;;;;;12837814;19;20030;-63
2022/12/13 23:13:04;;;;;;;138.13;54.13;;;;;;;;;;12835063;19;20338;-64
2022/12/13 23:17:21;;;;;;;116.55;46.28;;;;;;;;;;12834975;19;20014;-64
2022/12/13 23:21:39;;;;;;;123.13;51.00;;;;;;;;;;12837980;19;20295;-65
2022/12/13 23:26:28;;;;;;;117.20;48.22;;;;;;;;;;12837086;19;20014;-63
2022/12/13 23:30:45;;;;;;;106.03;41.05;;;;;;;;;;12835401;19;20425;-64
2022/12/13 23:35:02;;;;;;;110.22;41.63;;;;;;;;;;12836302;19;20307;-64
2022/12/13 23:39:19;;;;;;;93.03;35.67;;;;;;;;;;12835465;19;20434;-66
2022/12/13 23:43:38;;;;;;;94.80;39.63;;;;;;;;;;12835561;19;20015;-64
2022/12/13 23:47:55;;;;;;;119.50;46.70;;;;;;;;;;12836470;19;20434;-64
2022/12/13 23:52:12;;;;;;;132.55;55.83;;;;;;;;;;12834736;19;20046;-64
2022/12/13 23:56:29;;;;;;;73.50;31.45;;;;;;;;;;12833638;19;20437;-64
